Time;durP1;ratioP1;P1;durP2;ratioP2;P2;SDS_P1;SDS_P2;PMS_P1;PMS_P2;Temp;Humidity;BMP_temperature;BMP_pressure;BME280_temperature;BME280_humidity;BME280_pressure;Samples;Min_cycle;Max_cycle;Signal;HPM_P1;HPM_P2
2022/01/23 00:01:12;;;;;;;4.03;3.60;;;;;;;1.42;52.34;94942.31;4877059;29;20304;-76
2022/01/23 00:03:44;;;;;;;5.70;4.07;;;;;;;1.44;52.46;94946.38;4876560;29;20201;-74
2022/01/23 00:06:11;;;;;;;4.77;4.03;;;;;;;1.45;52.50;94953.06;4876525;29;20201;-75
2022/01/23 00:08:40;;;;;;;5.50;4.40;;;;;;;1.43;52.48;94964.94;4876338;29;20233;-74
2022/01/23 00:11:07;;;;;;;6.77;4.50;;;;;;;1.33;52.48;94947.81;4876354;29;20693;-75
2022/01/23 00:17:16;;;;;;;4.87;4.13;;;;;;;1.24;52.30;94929.72;4876708;29;20200;-75
2022/01/23 00:19:05;;;;;;;5.80;4.47;;;;;;;1.55;52.59;94968.53;4900903;29;20595;-75
2022/01/23 00:21:34;;;;;;;5.23;4.17;;;;;;;1.59;52.46;94969.19;4913755;29;20200;-75
2022/01/23 00:32:16;;;;;;;5.67;3.97;;;;;;;1.69;52.53;94976.22;4992804;28;20680;-75
2022/01/23 00:34:43;;;;;;;4.17;3.77;;;;;;;1.74;52.77;94978.50;4993371;28;20189;-75
2022/01/23 00:37:10;;;;;;;5.87;3.80;;;;;;;1.78;52.26;94980.00;4992517;28;20197;-76
2022/01/23 00:39:38;;;;;;;4.20;3.70;;;;;;;1.78;52.38;94981.69;4992670;28;20236;-76
2022/01/23 00:42:05;;;;;;;3.93;3.43;;;;;;;1.85;52.33;94980.47;4993114;28;20192;-75
2022/01/23 00:44:34;;;;;;;3.90;3.50;;;;;;;1.86;52.50;94985.47;4992720;28;20361;-75
2022/01/23 00:47:04;;;;;;;5.63;4.00;;;;;;;1.39;52.31;94905.50;4992655;28;20197;-75
2022/01/23 00:49:31;;;;;;;3.60;3.40;;;;;;;1.91;52.44;94986.03;4992432;28;20268;-74
2022/01/23 00:51:57;;;;;;;3.90;3.50;;;;;;;1.93;52.63;94981.72;4992310;28;20212;-74
2022/01/23 00:54:26;;;;;;;3.97;3.57;;;;;;;1.94;52.47;94980.84;4992053;28;20696;-74
2022/01/23 00:56:55;;;;;;;6.60;3.60;;;;;;;1.93;52.51;94970.81;4992416;28;20197;-77
2022/01/23 00:59:21;;;;;;;4.10;3.63;;;;;;;1.97;52.42;94990.75;4992272;28;20217;-74
2022/01/23 01:01:49;;;;;;;5.90;3.87;;;;;;;1.98;52.61;94982.28;4996418;28;20223;-74
2022/01/23 01:04:16;;;;;;;5.27;3.60;;;;;;;2.00;52.31;94980.50;5011506;28;20196;-75
2022/01/23 01:06:44;;;;;;;7.10;4.10;;;;;;;2.02;52.51;94980.44;5011691;28;20200;-75
2022/01/23 01:09:13;;;;;;;4.47;4.00;;;;;;;2.01;52.47;94978.81;5011086;28;20319;-75
2022/01/23 01:11:58;;;;;;;3.60;3.23;;;;;;;2.04;52.65;94976.13;5012055;28;20254;-76
2022/01/23 01:17:18;;;;;;;4.30;3.80;;;;;;;1.96;52.64;94966.44;5011096;28;20211;-74
2022/01/23 01:30:56;;;;;;;4.87;3.63;;;;;;;1.82;52.92;94978.13;5012058;28;20191;-75
2022/01/23 01:33:33;;;;;;;6.43;3.67;;;;;;;1.78;53.17;94985.03;5011661;28;20185;-74
2022/01/23 01:36:03;;;;;;;3.90;3.60;;;;;;;1.76;53.18;94987.59;5010931;28;20192;-74
2022/01/23 01:38:31;;;;;;;3.93;3.20;;;;;;;1.75;53.13;94980.13;5010557;28;20864;-74
2022/01/23 01:40:59;;;;;;;4.27;3.70;;;;;;;1.69;53.55;94976.22;5010793;28;20235;-75
2022/01/23 01:43:25;;;;;;;4.13;3.73;;;;;;;1.70;53.46;94974.50;5011048;28;20695;-74
2022/01/23 01:45:55;;;;;;;4.83;3.30;;;;;;;1.72;53.70;94976.03;5010751;28;20192;-74
2022/01/23 01:48:24;;;;;;;3.77;3.10;;;;;;;1.70;53.49;94972.81;5010756;28;20355;-75
2022/01/23 01:50:53;;;;;;;3.80;3.40;;;;;;;1.70;53.38;94974.50;5010690;28;20188;-76
2022/01/23 01:53:20;;;;;;;3.57;3.27;;;;;;;1.67;53.92;94979.69;5009718;28;20587;-74
2022/01/23 01:55:55;;;;;;;3.83;3.53;;;;;;;1.64;53.58;94970.59;5010995;28;20188;-74
2022/01/23 01:58:45;;;;;;;4.33;3.90;;;;;;;1.64;53.75;94974.81;5011078;28;20195;-74
2022/01/23 02:02:44;;;;;;;6.20;4.03;;;;;;;1.25;53.60;94917.94;5010863;28;20414;-74
2022/01/23 02:09:36;;;;;;;4.53;4.13;;;;;;;1.58;53.89;94985.22;5010071;28;20222;-75
2022/01/23 02:12:19;;;;;;;6.13;4.40;;;;;;;1.58;54.02;94987.72;5011031;28;20641;-75
2022/01/23 02:15:09;;;;;;;4.90;4.33;;;;;;;1.41;54.04;94961.66;5010629;28;20184;-75
2022/01/23 02:17:55;;;;;;;6.17;5.17;;;;;;;1.53;53.83;94980.41;5009946;28;20258;-74
2022/01/23 02:23:41;;;;;;;7.67;6.00;;;;;;;1.38;53.77;94976.09;5010121;28;20272;-74
2022/01/23 02:56:20;;;;;;;7.40;4.50;;;;;;;1.02;54.13;95012.25;4877284;29;20204;-76
2022/01/23 02:58:56;;;;;;;4.77;4.30;;;;;;;0.99;54.37;95013.22;4877646;29;20193;-75
2022/01/23 03:01:27;;;;;;;4.63;4.20;;;;;;;0.97;54.31;95017.50;4877124;29;20213;-73
2022/01/23 03:04:03;;;;;;;4.73;4.20;;;;;;;0.96;54.30;95010.84;4877569;29;20268;-75
2022/01/23 03:06:54;;;;;;;6.40;4.73;;;;;;;0.96;54.18;95022.63;4876940;29;20650;-74
2022/01/23 03:12:50;;;;;;;8.27;4.50;;;;;;;0.93;54.34;95023.56;4910547;29;20598;-75
2022/01/23 03:15:08;;;;;;;4.67;4.27;;;;;;;0.93;54.11;95022.75;4933888;29;20607;-76
2022/01/23 03:28:39;;;;;;;4.97;3.87;;;;;;;0.87;53.98;95025.56;4858759;29;20582;-74
2022/01/23 03:31:19;;;;;;;5.93;4.33;;;;;;;0.86;54.23;95024.75;4932291;29;20227;-75
2022/01/23 03:33:46;;;;;;;7.53;4.33;;;;;;;0.87;54.12;95036.47;4952845;29;20308;-74
2022/01/23 03:36:13;;;;;;;4.70;4.20;;;;;;;0.87;54.18;95040.69;4952218;29;20206;-74
2022/01/23 03:38:40;;;;;;;5.97;4.40;;;;;;;0.75;54.16;95012.66;4952232;29;20257;-74
2022/01/23 03:41:08;;;;;;;6.33;5.03;;;;;;;0.85;54.03;95018.06;4952890;29;20229;-75
2022/01/23 03:43:38;;;;;;;6.03;4.40;;;;;;;0.88;53.92;95027.19;4954658;29;20195;-75
2022/01/23 03:51:37;;;;;;;6.53;4.93;;;;;;;0.92;53.70;95028.69;4895285;29;20319;-75
2022/01/23 03:54:04;;;;;;;6.40;4.53;;;;;;;0.98;53.94;95033.44;4895231;29;20232;-74
2022/01/23 03:56:32;;;;;;;4.87;4.37;;;;;;;1.01;53.57;95033.28;4894833;29;20189;-74
2022/01/23 03:58:59;;;;;;;4.73;4.20;;;;;;;1.04;53.75;95039.88;4895095;29;20197;-73
2022/01/23 04:01:26;;;;;;;6.60;4.27;;;;;;;1.02;53.47;95037.44;4894154;29;20220;-74
2022/01/23 04:03:56;;;;;;;4.87;4.30;;;;;;;1.06;53.32;95049.00;4895095;29;20196;-75
2022/01/23 04:06:24;;;;;;;4.30;3.90;;;;;;;1.09;53.69;95050.56;4937715;29;20695;-75
2022/01/23 04:08:51;;;;;;;4.67;4.13;;;;;;;0.98;53.40;95031.72;4951663;29;20690;-75
2022/01/23 04:11:19;;;;;;;5.03;4.53;;;;;;;1.14;53.70;95057.00;4951786;29;20194;-75
2022/01/23 04:13:53;;;;;;;5.13;4.33;;;;;;;1.16;53.10;95051.91;4952004;29;20574;-75
2022/01/23 04:19:29;;;;;;;7.13;4.43;;;;;;;1.22;53.06;95065.03;4894622;29;20195;-75
2022/01/23 04:33:17;;;;;;;4.50;4.07;;;;;;;1.36;52.47;95066.88;4952493;29;20261;-76
2022/01/23 04:45:12;;;;;;;5.43;4.10;;;;;;;1.38;52.53;95065.13;4951778;29;20278;-76
2022/01/23 05:00:36;;;;;;;6.43;4.53;;;;;;;1.41;52.25;95067.47;5011053;28;20259;-76
2022/01/23 05:05:59;;;;;;;6.00;4.23;;;;;;;1.40;51.94;95077.63;4986510;28;20200;-75
2022/01/23 05:08:29;;;;;;;5.77;4.50;;;;;;;1.41;52.00;95076.75;5011043;28;20258;-75
2022/01/23 05:10:59;;;;;;;5.93;4.13;;;;;;;1.31;51.79;95068.00;5011659;28;20197;-75
2022/01/23 05:13:26;;;;;;;6.33;4.43;;;;;;;1.41;51.78;95079.25;5009563;28;20655;-74
2022/01/23 05:15:53;;;;;;;6.20;4.40;;;;;;;1.39;51.75;95078.53;5011545;28;20810;-74
2022/01/23 05:18:22;;;;;;;7.57;4.60;;;;;;;1.42;51.70;95081.69;5011283;28;20275;-74
2022/01/23 05:20:55;;;;;;;6.27;4.93;;;;;;;1.38;51.61;95076.88;5010792;28;20220;-75
2022/01/23 05:23:22;;;;;;;5.30;4.43;;;;;;;1.39;51.41;95081.88;5011011;28;20204;-75
2022/01/23 05:25:49;;;;;;;5.20;4.20;;;;;;;1.41;51.54;95090.16;5011273;28;20254;-75
2022/01/23 05:28:17;;;;;;;5.83;4.63;;;;;;;1.27;51.56;95067.31;5011142;28;20192;-77
2022/01/23 05:30:44;;;;;;;4.03;3.73;;;;;;;1.38;51.31;95090.31;5011101;28;20196;-75
2022/01/23 05:33:11;;;;;;;5.93;4.10;;;;;;;1.42;51.51;95096.81;5011255;28;20196;-76
2022/01/23 05:35:39;;;;;;;5.57;4.47;;;;;;;1.41;51.24;95097.72;5010986;28;20185;-76
2022/01/23 05:38:06;;;;;;;5.57;3.97;;;;;;;1.42;51.34;95096.81;5011154;28;20690;-76
2022/01/23 05:40:33;;;;;;;4.93;4.43;;;;;;;1.38;51.13;95090.31;5010407;28;20651;-75
2022/01/23 05:42:59;;;;;;;4.43;4.03;;;;;;;1.40;51.10;95097.78;5011296;28;20191;-76
2022/01/23 05:45:26;;;;;;;4.50;3.93;;;;;;;1.39;51.49;95101.22;5010913;28;20196;-74
2022/01/23 05:47:53;;;;;;;3.73;3.43;;;;;;;1.35;50.97;95098.00;5011126;28;20192;-73
2022/01/23 05:50:20;;;;;;;6.03;4.13;;;;;;;1.35;50.90;95102.25;5010399;28;20193;-75
2022/01/23 05:52:49;;;;;;;6.43;3.90;;;;;;;1.31;51.24;95104.09;5010882;28;20250;-75
2022/01/23 05:55:16;;;;;;;6.20;5.03;;;;;;;1.29;50.87;95103.31;5010214;28;20200;-75
2022/01/23 05:57:44;;;;;;;5.43;4.00;;;;;;;1.25;50.94;95100.16;5010473;28;20188;-74
2022/01/23 06:00:12;;;;;;;5.20;4.20;;;;;;;1.25;50.90;95104.34;5010426;28;20197;-75
2022/01/23 06:02:39;;;;;;;5.97;4.20;;;;;;;1.22;51.06;95107.84;5010473;28;20228;-76
2022/01/23 06:05:06;;;;;;;6.93;4.20;;;;;;;1.21;50.85;95105.41;5010796;28;20192;-76
2022/01/23 06:07:34;;;;;;;6.40;4.50;;;;;;;1.17;50.90;95099.69;5010439;28;20730;-74
2022/01/23 06:10:06;;;;;;;6.43;5.30;;;;;;;1.19;51.08;95109.69;5010704;28;20188;-75
2022/01/23 06:12:32;;;;;;;6.90;5.77;;;;;;;1.18;51.02;95111.41;5010974;28;20215;-76
2022/01/23 06:14:59;;;;;;;10.17;5.67;;;;;;;1.19;51.19;95117.25;5010459;28;20199;-77
2022/01/23 06:17:26;;;;;;;7.67;5.40;;;;;;;1.21;50.88;95121.34;5009716;28;20192;-76
2022/01/23 06:19:53;;;;;;;6.37;5.07;;;;;;;1.23;51.12;95118.75;5010618;28;20220;-74
2022/01/23 06:22:20;;;;;;;5.90;4.77;;;;;;;1.24;51.06;95121.16;5011652;28;20659;-75
2022/01/23 06:24:48;;;;;;;6.53;5.60;;;;;;;1.27;50.85;95117.72;5014512;28;20196;-76
2022/01/23 06:27:16;;;;;;;6.07;5.20;;;;;;;1.30;50.61;95125.13;5017292;28;20211;-75
2022/01/23 06:29:45;;;;;;;6.63;4.77;;;;;;;1.33;50.81;95124.97;5016951;28;20196;-74
2022/01/23 06:32:12;;;;;;;8.10;5.17;;;;;;;1.38;50.48;95122.22;5017986;28;20223;-73
2022/01/23 06:34:39;;;;;;;6.37;4.60;;;;;;;1.50;50.64;95122.47;5019587;28;20192;-74
2022/01/23 06:37:06;;;;;;;7.10;4.90;;;;;;;1.75;50.19;95124.66;5023517;28;20199;-76
2022/01/23 06:39:33;;;;;;;5.70;4.50;;;;;;;2.10;49.89;95122.09;5025844;28;20551;-76
2022/01/23 06:42:00;;;;;;;5.27;4.63;;;;;;;2.50;49.45;95113.34;5027479;28;20228;-76
2022/01/23 06:44:29;;;;;;;5.40;4.50;;;;;;;2.99;49.43;95110.78;5026015;28;20181;-75
2022/01/23 06:46:56;;;;;;;6.57;4.87;;;;;;;3.49;49.39;95124.91;5025033;28;20199;-77
2022/01/23 06:49:23;;;;;;;6.20;4.50;;;;;;;3.86;49.07;95094.25;5021848;28;20254;-76
2022/01/23 06:51:51;;;;;;;6.57;4.50;;;;;;;4.59;48.79;95122.88;5015999;28;20683;-76
2022/01/23 06:54:18;;;;;;;5.37;4.70;;;;;;;5.15;48.31;95113.56;5016742;28;20222;-77
2022/01/23 06:56:46;;;;;;;5.20;4.30;;;;;;;5.74;47.80;95121.69;5018129;28;20258;-77
2022/01/23 06:59:13;;;;;;;6.13;4.53;;;;;;;6.29;47.29;95115.59;5016881;28;20184;-74
2022/01/23 07:01:42;;;;;;;5.70;4.43;;;;;;;6.85;46.70;95114.44;5016944;28;20282;-75
2022/01/23 07:04:08;;;;;;;5.63;4.50;;;;;;;7.40;46.19;95123.34;5017223;28;20588;-76
2022/01/23 07:06:35;;;;;;;6.10;4.00;;;;;;;7.91;45.58;95120.53;5019405;28;20196;-77
2022/01/23 07:09:02;;;;;;;6.93;4.87;;;;;;;8.38;44.62;95106.91;5017640;28;20232;-75
2022/01/23 07:11:29;;;;;;;6.63;5.27;;;;;;;8.89;44.13;95111.53;5016988;28;20189;-77
2022/01/23 07:13:56;;;;;;;6.83;5.30;;;;;;;9.33;43.25;95116.72;5016662;28;20195;-76
2022/01/23 07:16:22;;;;;;;9.53;5.17;;;;;;;9.74;42.03;95118.56;5016621;28;20204;-74
2022/01/23 07:18:53;;;;;;;6.70;5.30;;;;;;;10.17;41.98;95113.34;5016021;28;20199;-75
2022/01/23 07:21:20;;;;;;;6.17;4.93;;;;;;;10.48;41.13;95104.00;5016789;28;20216;-76
2022/01/23 07:23:52;;;;;;;7.43;4.77;;;;;;;10.84;40.09;95117.25;5016268;28;20243;-74
2022/01/23 07:26:21;;;;;;;6.47;4.80;;;;;;;11.16;39.58;95109.41;5016475;28;20200;-76
2022/01/23 07:28:48;;;;;;;7.83;6.00;;;;;;;11.23;39.63;95107.94;5017470;28;20264;-74
2022/01/23 07:31:31;;;;;;;6.37;5.70;;;;;;;11.18;39.53;95115.22;5016331;28;20279;-75
2022/01/23 07:34:02;;;;;;;7.07;5.17;;;;;;;10.96;39.26;95115.38;5016224;28;20184;-76
2022/01/23 07:36:29;;;;;;;6.93;5.67;;;;;;;10.76;39.07;95119.63;5014200;28;20188;-74
2022/01/23 07:38:58;;;;;;;5.73;4.97;;;;;;;10.53;38.73;95129.19;5013014;28;20189;-75
2022/01/23 07:41:24;;;;;;;8.00;5.27;;;;;;;10.20;38.56;95109.75;5013370;28;20219;-73
2022/01/23 07:43:51;;;;;;;6.90;5.67;;;;;;;10.12;38.36;95130.81;5014581;28;20184;-77
2022/01/23 07:46:21;;;;;;;6.37;5.60;;;;;;;10.03;37.93;95126.44;5019808;28;20189;-74
2022/01/23 07:48:49;;;;;;;6.17;5.47;;;;;;;10.20;37.34;95132.75;5020181;28;20203;-75
2022/01/23 07:51:17;;;;;;;6.83;5.33;;;;;;;10.28;37.26;95126.13;5020427;28;20180;-75
2022/01/23 07:53:44;;;;;;;10.10;6.30;;;;;;;10.18;37.32;95137.97;5015553;28;20626;-73
2022/01/23 07:56:11;;;;;;;8.47;5.77;;;;;;;10.00;37.63;95135.16;5013661;28;20189;-77
2022/01/23 07:58:38;;;;;;;7.47;5.93;;;;;;;9.83;37.66;95137.44;5013395;28;20196;-76
2022/01/23 08:01:05;;;;;;;8.40;6.13;;;;;;;9.18;37.88;95071.03;5013073;28;20184;-75
2022/01/23 08:03:31;;;;;;;9.33;7.03;;;;;;;9.37;37.92;95134.22;5012936;28;20204;-76
2022/01/23 08:05:59;;;;;;;9.13;6.60;;;;;;;9.15;38.13;95140.16;5012509;28;20200;-76
2022/01/23 08:08:27;;;;;;;8.80;6.67;;;;;;;8.92;38.28;95139.38;5013178;28;20228;-77
2022/01/23 08:10:55;;;;;;;7.83;6.33;;;;;;;8.70;38.37;95142.72;5012323;28;20193;-79
2022/01/23 08:13:21;;;;;;;9.47;6.63;;;;;;;8.47;38.43;95141.09;5012641;28;20185;-77
2022/01/23 08:15:48;;;;;;;8.27;6.40;;;;;;;8.26;38.53;95141.72;5012185;28;20199;-73
2022/01/23 08:18:16;;;;;;;13.57;6.57;;;;;;;8.08;38.81;95149.91;5012607;28;20188;-78
2022/01/23 08:20:43;;;;;;;9.13;6.67;;;;;;;7.90;38.85;95141.81;5012272;28;20216;-77
2022/01/23 08:23:12;;;;;;;8.37;6.33;;;;;;;7.73;38.93;95146.41;5012543;28;20212;-74
2022/01/23 08:25:41;;;;;;;8.67;6.17;;;;;;;7.56;38.97;95144.25;5011656;28;20200;-74
2022/01/23 08:28:08;;;;;;;6.83;5.67;;;;;;;7.46;39.16;95140.69;5012398;28;20192;-75
2022/01/23 08:30:36;;;;;;;6.27;5.60;;;;;;;7.24;39.61;95121.84;5012432;28;20229;-76
2022/01/23 08:33:03;;;;;;;6.90;5.73;;;;;;;7.09;39.41;95124.66;5011946;28;20208;-75
2022/01/23 08:35:31;;;;;;;9.93;6.73;;;;;;;7.11;39.42;95140.63;5012329;28;20196;-75
2022/01/23 08:37:59;;;;;;;7.03;5.90;;;;;;;7.01;39.56;95130.28;5011841;28;20188;-75
2022/01/23 08:40:46;;;;;;;8.43;6.43;;;;;;;6.92;39.54;95143.63;5012324;28;20224;-76
2022/01/23 08:43:16;;;;;;;6.97;5.80;;;;;;;6.70;39.74;95126.47;5012086;28;20223;-75
2022/01/23 08:45:43;;;;;;;8.30;6.00;;;;;;;6.75;39.74;95134.59;5012477;28;20283;-75
2022/01/23 08:48:10;;;;;;;7.90;5.33;;;;;;;6.65;39.88;95124.22;5010925;28;20193;-77
2022/01/23 08:50:37;;;;;;;6.63;5.77;;;;;;;6.61;39.96;95122.81;5012466;28;20188;-74
2022/01/23 08:53:06;;;;;;;6.57;5.43;;;;;;;6.54;39.98;95126.66;5014838;28;20192;-75
2022/01/23 08:55:33;;;;;;;9.30;5.43;;;;;;;6.52;40.04;95131.88;5014307;28;20735;-74
2022/01/23 08:58:00;;;;;;;5.93;5.30;;;;;;;6.49;39.93;95126.97;5014271;28;20189;-76
2022/01/23 09:00:29;;;;;;;7.00;5.43;;;;;;;6.49;40.09;95133.78;5013935;28;20196;-74
2022/01/23 09:02:57;;;;;;;7.30;5.97;;;;;;;6.48;40.12;95132.16;5013605;28;20228;-75
2022/01/23 09:05:24;;;;;;;7.03;5.37;;;;;;;6.49;40.08;95128.72;5012241;28;20204;-76
2022/01/23 09:07:51;;;;;;;7.43;5.00;;;;;;;6.50;39.98;95136.22;5012474;28;20290;-74
2022/01/23 09:10:24;;;;;;;6.17;5.30;;;;;;;6.51;39.90;95135.28;5011503;28;20258;-75
2022/01/23 09:13:05;;;;;;;7.23;5.13;;;;;;;6.53;40.08;95136.03;5011056;28;20731;-75
2022/01/23 09:15:33;;;;;;;7.13;5.30;;;;;;;6.55;40.08;95133.38;5011614;28;20192;-75
2022/01/23 09:18:00;;;;;;;7.87;5.47;;;;;;;6.56;40.10;95129.91;5013768;28;20196;-73
2022/01/23 09:20:27;;;;;;;7.83;6.03;;;;;;;6.57;40.08;95136.63;5016494;28;20184;-76
2022/01/23 09:22:54;;;;;;;6.93;5.17;;;;;;;6.50;40.27;95118.44;5013587;28;20220;-75
2022/01/23 09:25:21;;;;;;;9.57;5.20;;;;;;;6.57;40.26;95125.66;5014792;28;20192;-75
2022/01/23 09:27:49;;;;;;;6.80;5.30;;;;;;;6.54;40.27;95122.41;5014686;28;20196;-75
2022/01/23 09:30:20;;;;;;;6.17;4.53;;;;;;;6.53;40.14;95125.84;5016908;28;20200;-76
2022/01/23 09:32:50;;;;;;;5.93;4.87;;;;;;;6.49;40.19;95116.81;5015898;28;20247;-75
2022/01/23 09:35:18;;;;;;;6.47;5.20;;;;;;;6.46;40.10;95117.00;5016690;28;20200;-76
2022/01/23 09:37:46;;;;;;;6.37;4.97;;;;;;;6.45;40.28;95119.66;5012285;28;20201;-75
2022/01/23 09:40:14;;;;;;;7.07;4.90;;;;;;;6.43;40.22;95116.41;5011555;28;20284;-77
2022/01/23 09:42:45;;;;;;;8.23;5.20;;;;;;;6.39;40.18;95117.50;5011629;28;20220;-73
2022/01/23 09:45:14;;;;;;;9.47;5.13;;;;;;;6.35;40.28;95114.38;5011356;28;20196;-74
2022/01/23 09:47:42;;;;;;;5.57;4.90;;;;;;;6.34;40.25;95115.28;5010932;28;20208;-73
2022/01/23 09:50:14;;;;;;;6.37;5.00;;;;;;;6.31;40.23;95112.97;5011883;28;20189;-76
2022/01/23 09:52:42;;;;;;;6.87;5.70;;;;;;;6.27;40.30;95097.09;5010690;28;20192;-74
2022/01/23 09:55:12;;;;;;;7.40;4.87;;;;;;;6.24;40.24;95115.09;5009869;28;20199;-74
2022/01/23 09:57:41;;;;;;;6.77;5.43;;;;;;;6.20;40.21;95103.50;5009476;28;20196;-75
2022/01/23 10:00:11;;;;;;;6.17;5.37;;;;;;;6.15;40.24;95105.53;5010136;28;20211;-75
2022/01/23 10:02:39;;;;;;;6.47;5.10;;;;;;;6.09;40.22;95093.25;5010800;28;20212;-75
2022/01/23 10:07:53;;;;;;;7.00;4.70;;;;;;;6.01;40.25;95100.56;5010850;28;20275;-76
2022/01/23 10:10:26;;;;;;;6.57;5.07;;;;;;;5.97;40.28;95099.94;5009044;28;20196;-76
2022/01/23 10:12:55;;;;;;;8.60;6.07;;;;;;;5.95;40.31;95098.41;5010432;28;20254;-76
2022/01/23 10:15:25;;;;;;;7.63;4.83;;;;;;;5.90;40.44;95088.50;5010948;28;20307;-76
2022/01/23 10:17:52;;;;;;;9.63;5.37;;;;;;;5.67;40.30;95049.41;5010850;28;20202;-74
2022/01/23 10:20:19;;;;;;;8.87;5.63;;;;;;;5.89;40.36;95076.75;5011678;28;20188;-76
2022/01/23 10:22:50;;;;;;;8.17;5.60;;;;;;;5.90;40.48;95077.56;5011127;28;20588;-76
2022/01/23 10:25:20;;;;;;;5.60;4.53;;;;;;;5.87;40.45;95077.75;5010529;28;20188;-75
2022/01/23 10:28:02;;;;;;;5.30;4.77;;;;;;;5.86;40.57;95076.13;5010649;28;20660;-74
2022/01/23 10:30:33;;;;;;;7.17;5.10;;;;;;;5.89;40.38;95065.78;5010797;28;20195;-73
2022/01/23 10:33:06;;;;;;;7.30;4.97;;;;;;;5.92;40.50;95061.34;5010534;28;20192;-74
2022/01/23 10:35:34;;;;;;;7.00;5.17;;;;;;;5.95;40.18;95061.13;5010548;28;20668;-74
2022/01/23 10:38:12;;;;;;;6.30;4.93;;;;;;;5.98;40.48;95050.78;5009847;28;20723;-74
2022/01/23 10:40:49;;;;;;;5.17;4.50;;;;;;;5.96;40.26;95051.81;5010720;28;20191;-75
2022/01/23 10:48:47;;;;;;;5.00;4.40;;;;;;;6.00;40.54;95018.50;5010217;28;20191;-74
2022/01/23 10:51:27;;;;;;;5.33;4.27;;;;;;;6.19;40.29;95040.13;5010160;28;20196;-73
2022/01/23 10:54:06;;;;;;;5.60;4.77;;;;;;;6.24;40.25;95028.72;5010189;28;20199;-73
2022/01/23 10:56:39;;;;;;;5.77;4.43;;;;;;;6.13;40.11;94999.91;5009657;28;20192;-75
2022/01/23 10:59:08;;;;;;;6.57;4.20;;;;;;;6.30;40.20;95030.03;5010373;28;20228;-74
2022/01/23 11:01:36;;;;;;;6.63;4.90;;;;;;;6.40;40.25;95028.53;5010196;28;20192;-74
2022/01/23 11:04:09;;;;;;;7.03;4.53;;;;;;;6.25;40.21;94991.44;5010154;28;20216;-74
2022/01/23 11:06:52;;;;;;;6.20;4.37;;;;;;;6.49;40.16;95016.91;5010352;28;20280;-77
2022/01/23 11:09:20;;;;;;;5.20;4.23;;;;;;;6.47;39.97;95004.31;5010925;28;20699;-74
2022/01/23 11:11:51;;;;;;;5.20;4.10;;;;;;;6.61;40.16;95023.72;5011923;28;20664;-75
2022/01/23 11:17:23;;;;;;;5.53;3.87;;;;;;;6.56;40.03;94989.34;5014783;28;20279;-73
2022/01/23 11:19:55;;;;;;;7.73;4.30;;;;;;;6.81;39.96;94999.44;5021517;28;20223;-76
2022/01/23 11:22:23;;;;;;;7.60;4.40;;;;;;;6.87;39.77;94996.50;5016550;28;20275;-75
2022/01/23 11:24:52;;;;;;;9.60;5.10;;;;;;;6.95;39.83;95001.84;5013835;28;20296;-77
2022/01/23 11:27:23;;;;;;;8.23;4.33;;;;;;;7.00;39.76;94993.88;5013638;28;20192;-77
2022/01/23 11:29:55;;;;;;;5.73;4.43;;;;;;;7.06;39.67;94997.72;5013670;28;20196;-74
2022/01/23 11:32:24;;;;;;;6.47;4.97;;;;;;;7.10;39.72;95002.47;5013552;28;20656;-75
2022/01/23 11:34:57;;;;;;;5.17;4.67;;;;;;;7.16;39.50;94994.41;5013896;28;20271;-78
2022/01/23 11:37:24;;;;;;;7.20;4.50;;;;;;;7.24;39.42;94992.13;5014756;28;20188;-76
2022/01/23 11:39:57;;;;;;;4.87;3.97;;;;;;;7.32;39.37;94991.59;5013054;28;20200;-75
2022/01/23 11:51:06;;;;;;;4.70;3.60;;;;;;;7.37;39.04;94983.63;5013593;28;20247;-75
2022/01/23 11:53:46;;;;;;;6.13;4.27;;;;;;;7.38;39.26;94990.31;5013112;28;20196;-74
2022/01/23 11:56:35;;;;;;;5.70;4.00;;;;;;;7.35;39.11;94977.84;5013190;28;20622;-75
2022/01/23 11:59:17;;;;;;;4.57;4.13;;;;;;;7.28;39.21;94980.81;5013254;28;20189;-74
2022/01/23 12:01:47;;;;;;;4.87;4.03;;;;;;;7.22;39.17;94975.38;5012769;28;20648;-74
2022/01/23 12:04:19;;;;;;;5.60;3.90;;;;;;;7.17;39.17;94977.44;5012931;28;20231;-76
2022/01/23 12:07:20;;;;;;;6.20;4.30;;;;;;;7.10;39.02;94974.50;5013268;28;20258;-78
2022/01/23 12:10:13;;;;;;;6.70;4.30;;;;;;;7.00;38.98;94971.81;5012840;28;20236;-75
2022/01/23 12:12:44;;;;;;;5.33;3.97;;;;;;;6.91;39.07;94967.38;5012841;28;20200;-74
2022/01/23 12:18:14;;;;;;;5.60;4.23;;;;;;;6.73;39.10;94972.00;5012597;28;20211;-75
2022/01/23 12:20:42;;;;;;;4.77;3.93;;;;;;;6.29;39.24;94903.97;5012695;28;20196;-74
2022/01/23 12:23:09;;;;;;;5.13;4.00;;;;;;;6.62;39.26;94971.16;5011962;28;20655;-76
2022/01/23 12:25:46;;;;;;;4.20;3.77;;;;;;;6.54;39.22;94977.56;5012713;28;20181;-78
2022/01/23 12:28:25;;;;;;;5.17;4.07;;;;;;;6.39;39.38;94967.66;5012241;28;20254;-76
2022/01/23 12:30:55;;;;;;;4.53;3.53;;;;;;;6.36;39.33;94978.03;5012367;28;20262;-76
2022/01/23 12:33:48;;;;;;;4.07;3.63;;;;;;;6.29;39.52;94985.25;5012501;28;20680;-77
2022/01/23 12:36:24;;;;;;;5.63;4.23;;;;;;;6.17;39.48;94964.03;5010026;28;20199;-76
2022/01/23 12:38:53;;;;;;;6.43;4.43;;;;;;;6.06;39.59;94975.84;5012147;28;20238;-77
2022/01/23 12:41:26;;;;;;;5.67;3.90;;;;;;;5.92;39.62;94959.00;5012349;28;20255;-75
2022/01/23 12:43:56;;;;;;;6.90;4.17;;;;;;;5.92;39.67;94974.25;5011969;28;20224;-75
2022/01/23 12:46:34;;;;;;;5.17;3.47;;;;;;;5.85;39.90;94973.78;5012484;28;20211;-75
2022/01/23 12:49:18;;;;;;;5.03;4.53;;;;;;;5.69;40.01;94961.31;5011947;28;20578;-73
2022/01/23 12:51:46;;;;;;;5.07;4.23;;;;;;;5.74;40.00;94972.00;5012160;28;20184;-76
2022/01/23 12:54:33;;;;;;;6.13;4.40;;;;;;;5.49;40.31;94956.75;5012973;28;20203;-75
2022/01/23 12:57:08;;;;;;;4.90;4.20;;;;;;;5.62;40.29;94987.19;5011970;28;20200;-74
2022/01/23 12:59:36;;;;;;;5.57;4.23;;;;;;;5.60;40.56;94981.41;5011826;28;20271;-75
2022/01/23 13:02:13;;;;;;;5.20;4.07;;;;;;;5.44;40.69;94963.81;5012080;28;20266;-74
2022/01/23 13:04:43;;;;;;;6.00;4.30;;;;;;;5.54;40.59;94982.63;5012531;28;20255;-76
2022/01/23 13:07:20;;;;;;;7.43;4.33;;;;;;;5.49;40.75;94982.13;5011766;28;20199;-77
2022/01/23 13:12:48;;;;;;;5.53;4.30;;;;;;;5.41;40.83;94990.22;5011385;28;20581;-75
2022/01/23 13:18:12;;;;;;;4.13;3.73;;;;;;;5.33;41.05;94976.41;4951156;28;20205;-75
2022/01/23 13:32:26;;;;;;;4.40;4.00;;;;;;;5.20;41.08;94994.13;5047934;28;20558;-77
2022/01/23 13:34:57;;;;;;;5.43;3.87;;;;;;;5.15;41.20;94998.69;5047897;28;20193;-74
2022/01/23 13:37:27;;;;;;;6.47;4.10;;;;;;;5.10;41.38;95001.50;5047297;28;20597;-75
2022/01/23 13:39:59;;;;;;;5.17;3.63;;;;;;;5.05;41.46;94998.44;5047704;28;20183;-74
2022/01/23 13:42:47;;;;;;;5.33;3.97;;;;;;;5.00;41.66;94997.91;5047574;28;20639;-73
2022/01/23 13:53:51;;;;;;;4.03;3.63;;;;;;;4.85;41.91;94994.63;5047649;28;20183;-76
2022/01/23 13:59:14;;;;;;;4.37;3.70;;;;;;;4.68;42.10;94979.66;5047166;28;20279;-77
2022/01/23 14:01:53;;;;;;;4.90;4.20;;;;;;;4.73;42.24;94995.38;5047292;28;20203;-77
2022/01/23 14:04:21;;;;;;;5.77;4.03;;;;;;;4.67;42.08;94986.44;5047987;28;20226;-74
2022/01/23 14:06:49;;;;;;;3.77;3.43;;;;;;;4.66;42.20;94991.59;5052801;28;20183;-75
2022/01/23 14:09:17;;;;;;;5.43;4.33;;;;;;;4.65;42.59;94987.44;5052460;28;20254;-76
2022/01/23 14:11:47;;;;;;;5.63;4.57;;;;;;;4.62;42.39;94987.63;5054229;28;20199;-75
2022/01/23 14:14:20;;;;;;;4.50;3.80;;;;;;;4.59;42.47;94986.09;5054277;28;20188;-74
2022/01/23 14:16:50;;;;;;;4.73;3.87;;;;;;;4.53;42.46;94987.31;5053094;28;20236;-73
2022/01/23 14:19:24;;;;;;;5.93;3.70;;;;;;;4.52;42.52;95000.84;5047788;28;20194;-74
2022/01/23 14:21:52;;;;;;;4.77;4.27;;;;;;;4.48;42.57;95001.94;5047326;28;20203;-73
2022/01/23 14:24:24;;;;;;;5.40;4.20;;;;;;;4.42;42.68;95002.31;5046624;28;20198;-76
2022/01/23 14:27:03;;;;;;;4.30;3.63;;;;;;;4.37;42.82;95004.31;5046906;28;20206;-74
2022/01/23 14:29:32;;;;;;;6.53;4.53;;;;;;;4.33;43.02;95004.59;5007148;28;20654;-74
2022/01/23 14:32:28;;;;;;;6.17;4.37;;;;;;;4.27;43.06;95004.06;5007107;28;20200;-75
2022/01/23 14:35:05;;;;;;;4.87;4.10;;;;;;;4.22;43.19;95016.16;4946452;29;20338;-76
2022/01/23 14:37:32;;;;;;;5.37;4.53;;;;;;;4.17;42.96;95018.16;4946253;29;20293;-76
2022/01/23 14:40:09;;;;;;;4.73;3.93;;;;;;;4.13;43.36;95018.44;4937198;29;20195;-75
2022/01/23 14:42:36;;;;;;;5.00;4.50;;;;;;;4.06;43.60;95024.75;4933554;29;20195;-75
2022/01/23 14:45:05;;;;;;;4.60;4.20;;;;;;;3.94;43.26;95019.53;4933528;29;20206;-75
2022/01/23 14:47:37;;;;;;;4.33;3.93;;;;;;;3.96;43.81;95027.81;4933514;29;20222;-76
2022/01/23 14:50:07;;;;;;;5.33;4.33;;;;;;;3.92;43.92;95026.38;4933520;29;20668;-76
2022/01/23 14:52:34;;;;;;;6.33;4.27;;;;;;;3.90;44.08;95027.38;4933546;29;20205;-75